| time (UTC) | temp F | wind direction | speed MPH | gust MPH | rain 1hr in | rain 24hr in | rain mn in | humidity % | barometer mb |
| 20260510203041 | 66 | 319 | 3.0 | 7.0 | 0.00 | 0.00 | 0.00 | 40 | 1021.2 |
| 20260510201536 | 66 | 37 | 1.0 | 11.0 | 0.00 | 0.00 | 0.00 | 41 | 1021.4 |
| 20260510200036 | 66 | 359 | 6.0 | 11.0 | 0.00 | 0.00 | 0.00 | 40 | 1021.5 |
| 20260510194549 | 66 | 52 | 3.0 | 13.0 | 0.00 | 0.00 | 0.00 | 42 | 1021.3 |
| 20260510193043 | 67 | 2 | 3.0 | 7.0 | 0.00 | 0.00 | 0.00 | 42 | 1021.3 |
| 20260510191542 | 65 | 33 | 4.0 | 9.0 | 0.00 | 0.00 | 0.00 | 44 | 1021.3 |
| 20260510190048 | 65 | 317 | 4.0 | 8.0 | 0.00 | 0.00 | 0.00 | 42 | 1021.3 |
| 20260510184548 | 64 | 26 | 4.0 | 10.0 | 0.00 | 0.00 | 0.00 | 45 | 1021.2 |
| 20260510183039 | 63 | 22 | 2.0 | 7.0 | 0.00 | 0.00 | 0.00 | 50 | 1021.3 |
| 20260510181535 | 63 | 6 | 6.0 | 13.0 | 0.00 | 0.00 | 0.00 | 46 | 1021.1 |
| 20260510180041 | 62 | 340 | 6.0 | 14.0 | 0.00 | 0.00 | 0.00 | 47 | 1020.9 |
| 20260510174548 | 61 | 339 | 5.0 | 12.0 | 0.00 | 0.00 | 0.00 | 49 | 1021.2 |
| 20260510173040 | 60 | 335 | 5.0 | 12.0 | 0.00 | 0.00 | 0.00 | 49 | 1021.5 |
| 20260510171536 | 60 | 70 | 8.0 | 13.0 | 0.00 | 0.00 | 0.00 | 47 | 1021.5 |
| 20260510170046 | 60 | 62 | 7.0 | 12.0 | 0.00 | 0.00 | 0.00 | 50 | 1021.5 |
| 20260510164552 | 60 | 40 | 3.0 | 7.0 | 0.00 | 0.00 | 0.00 | 55 | 1021.5 |
| 20260510163042 | 59 | 55 | 5.0 | 9.0 | 0.00 | 0.00 | 0.00 | 51 | 1021.1 |
| 20260510161541 | 59 | 42 | 3.0 | 9.0 | 0.00 | 0.00 | 0.00 | 56 | 1021.3 |
| 20260510160040 | 59 | 39 | 5.0 | 8.0 | 0.00 | 0.00 | 0.00 | 56 | 1021.1 |
| 20260510154539 | 58 | 15 | 4.0 | 7.0 | 0.00 | 0.00 | 0.00 | 56 | 1021.1 |
| 20260510153035 | 58 | 34 | 3.0 | 7.0 | 0.00 | 0.00 | 0.00 | 58 | 1021.1 |
| 20260510151549 | 58 | 72 | 3.0 | 7.0 | 0.00 | 0.00 | 0.00 | 56 | 1021.3 |
| 20260510150053 | 58 | 8 | 3.0 | 9.0 | 0.00 | 0.00 | 0.00 | 58 | 1021.1 |
| 20260510144603 | 58 | 37 | 3.0 | 9.0 | 0.00 | 0.00 | 0.00 | 55 | 1021.2 |
| 20260510143036 | 58 | 23 | 5.0 | 11.0 | 0.00 | 0.00 | 0.00 | 55 | 1021.0 |
| 20260510141547 | 58 | 329 | 5.0 | 9.0 | 0.00 | 0.00 | 0.00 | 56 | 1020.9 |
| 20260510140045 | 58 | 348 | 3.0 | 8.0 | 0.00 | 0.00 | 0.00 | 58 | 1020.6 |
| 20260510134548 | 58 | 25 | 4.0 | 8.0 | 0.00 | 0.00 | 0.00 | 57 | 1020.5 |
| 20260510133047 | 57 | 30 | 5.0 | 8.0 | 0.00 | 0.00 | 0.00 | 59 | 1020.1 |
| 20260510131544 | 57 | 54 | 4.0 | 9.0 | 0.00 | 0.00 | 0.00 | 59 | 1019.6 |
| 20260510130042 | 56 | 12 | 5.0 | 8.0 | 0.00 | 0.00 | 0.00 | 62 | 1019.3 |
| 20260510124539 | 56 | 2 | 3.0 | 10.0 | 0.00 | 0.00 | 0.00 | 64 | 1019.4 |
| 20260510123035 | 55 | 34 | 4.0 | 7.0 | 0.00 | 0.00 | 0.00 | 64 | 1019.2 |
| 20260510121543 | 55 | 346 | 2.0 | 5.0 | 0.00 | 0.00 | 0.00 | 66 | 1019.2 |
| 20260510120042 | 55 | 326 | 2.0 | 5.0 | 0.00 | 0.00 | 0.00 | 66 | 1019.0 |
| 20260510114603 | 55 | 353 | 3.0 | 6.0 | 0.00 | 0.00 | 0.00 | 65 | 1018.8 |
| 20260510113052 | 55 | 356 | 1.0 | 4.0 | 0.00 | 0.00 | 0.00 | 66 | 1018.4 |
| 20260510111541 | 56 | 10 | 2.0 | 6.0 | 0.00 | 0.00 | 0.00 | 65 | 1017.9 |
| 20260510110039 | 56 | 354 | 2.0 | 6.0 | 0.00 | 0.00 | 0.00 | 64 | 1017.7 |
| 20260510104538 | 57 | 17 | 4.0 | 7.0 | 0.00 | 0.00 | 0.00 | 63 | 1017.8 |
| 20260510103043 | 57 | 2 | 2.0 | 4.0 | 0.00 | 0.00 | 0.00 | 64 | 1017.5 |
| 20260510101541 | 58 | 22 | 3.0 | 5.0 | 0.00 | 0.00 | 0.00 | 62 | 1017.3 |
| 20260510100055 | 58 | 311 | 3.0 | 11.0 | 0.00 | 0.00 | 0.00 | 63 | 1016.9 |
| 20260510094540 | 58 | 14 | 4.0 | 10.0 | 0.00 | 0.00 | 0.00 | 64 | 1016.4 |
| 20260510093035 | 59 | 52 | 6.0 | 10.0 | 0.00 | 0.00 | 0.00 | 65 | 1016.3 |
| 20260510091543 | 59 | 28 | 5.0 | 10.0 | 0.00 | 0.00 | 0.00 | 71 | 1016.0 |
| 20260510090043 | 59 | 3 | 5.0 | 12.0 | 0.00 | 0.00 | 0.00 | 76 | 1015.9 |
| 20260510084542 | 59 | 17 | 2.0 | 7.0 | 0.00 | 0.00 | 0.00 | 81 | 1015.7 |
| 20260510083041 | 59 | 15 | 2.0 | 3.0 | 0.00 | 0.00 | 0.00 | 81 | 1015.2 |
| 20260510081536 | 60 | 359 | 2.0 | 5.0 | 0.00 | 0.00 | 0.00 | 81 | 1015.0 |
| 20260510080035 | 60 | 24 | 1.0 | 4.0 | 0.00 | 0.00 | 0.00 | 81 | 1015.0 |
| 20260510074546 | 60 | 18 | 2.0 | 5.0 | 0.00 | 0.00 | 0.00 | 81 | 1015.0 |
| 20260510073046 | 60 | 355 | 2.0 | 7.0 | 0.00 | 0.00 | 0.00 | 81 | 1015.0 |
| 20260510071540 | 60 | 2 | 2.0 | 5.0 | 0.00 | 0.00 | 0.00 | 81 | 1014.7 |
| 20260510070052 | 61 | 21 | 1.0 | 3.0 | 0.00 | 0.00 | 0.00 | 81 | 1014.9 |
| 20260510064538 | 61 | 0 | 0.0 | 3.0 | 0.00 | 0.00 | 0.00 | 81 | 1015.2 |
| 20260510063040 | 62 | 306 | 1.0 | 4.0 | 0.00 | 0.00 | 0.00 | 82 | 1015.2 |
| 20260510061543 | 62 | 0 | 0.0 | 4.0 | 0.00 | 0.00 | 0.00 | 83 | 1014.8 |
| 20260510060043 | 62 | 24 | 1.0 | 3.0 | 0.00 | 0.00 | 0.00 | 83 | 1014.6 |
| 20260510054549 | 62 | 316 | 0.0 | 3.0 | 0.00 | 0.00 | 0.00 | 83 | 1014.8 |
| 20260510053039 | 62 | 340 | 2.0 | 6.0 | 0.00 | 0.00 | 0.00 | 82 | 1014.4 |
| 20260510051537 | 63 | 216 | 3.0 | 5.0 | 0.00 | 0.00 | 0.00 | 82 | 1013.8 |
| 20260510050036 | 63 | 216 | 0.0 | 4.0 | 0.00 | 0.00 | 0.00 | 81 | 1014.0 |
| 20260510044600 | 63 | 216 | 1.0 | 3.0 | 0.00 | 0.00 | 0.00 | 81 | 1014.0 |
| 20260510043042 | 63 | 216 | 1.0 | 4.0 | 0.00 | 0.00 | 0.00 | 80 | 1013.4 |
| 20260510041549 | 63 | 216 | 1.0 | 3.0 | 0.00 | 0.00 | 0.00 | 79 | 1013.0 |
| 20260510040041 | 64 | 216 | 1.0 | 3.0 | 0.00 | 0.00 | 0.00 | 78 | 1012.7 |
| 20260510034539 | 64 | 216 | 1.0 | 4.0 | 0.00 | 0.00 | 0.00 | 77 | 1012.8 |
| 20260510033041 | 65 | 216 | 0.0 | 1.0 | 0.00 | 0.00 | 0.00 | 77 | 1012.6 |
| 20260510031543 | 65 | 0 | 0.0 | 0.0 | 0.00 | 0.00 | 0.00 | 75 | 1012.2 |
| 20260510030041 | 65 | 216 | 1.0 | 2.0 | 0.00 | 0.00 | 0.00 | 74 | 1012.1 |
| 20260510024545 | 65 | 216 | 1.0 | 3.0 | 0.00 | 0.00 | 0.00 | 74 | 1012.1 |
| 20260510023039 | 66 | 216 | 2.0 | 7.0 | 0.00 | 0.00 | 0.00 | 72 | 1011.8 |
| 20260510021539 | 67 | 216 | 4.0 | 9.0 | 0.00 | 0.00 | 0.00 | 70 | 1011.4 |
| 20260510020037 | 68 | 216 | 4.0 | 9.0 | 0.00 | 0.00 | 0.00 | 68 | 1010.9 |
| 20260510014535 | 69 | 216 | 5.0 | 10.0 | 0.00 | 0.00 | 0.00 | 64 | 1010.4 |
| 20260510013042 | 71 | 216 | 4.0 | 14.0 | 0.00 | 0.00 | 0.00 | 60 | 1010.1 |
| 20260510011541 | 74 | 216 | 9.0 | 17.0 | 0.00 | 0.00 | 0.00 | 55 | 1009.9 |
| 20260510010049 | 76 | 216 | 3.0 | 8.0 | 0.00 | 0.00 | 0.00 | 54 | 1008.8 |
| 20260510004539 | 76 | 216 | 3.0 | 7.0 | 0.00 | 0.00 | 0.00 | 52 | 1008.6 |
| 20260510003051 | 77 | 216 | 4.0 | 7.0 | 0.00 | 0.00 | 0.00 | 50 | 1008.6 |
| 20260510001546 | 78 | 216 | 4.0 | 9.0 | 0.00 | 0.00 | 0.00 | 49 | 1008.6 |
| 20260510000051 | 79 | 216 | 5.0 | 9.0 | 0.00 | 0.00 | 0.00 | 48 | 1008.6 |
| 20260509234553 | 80 | 216 | 7.0 | 12.0 | 0.00 | 0.00 | 0.00 | 45 | 1008.5 |
| 20260509233039 | 80 | 216 | 5.0 | 12.0 | 0.00 | 0.00 | 0.00 | 48 | 1008.6 |
| 20260509231539 | 80 | 216 | 8.0 | 12.0 | 0.00 | 0.00 | 0.00 | 45 | 1008.7 |
| 20260509230036 | 80 | 216 | 7.0 | 12.0 | 0.00 | 0.00 | 0.00 | 45 | 1008.6 |
| 20260509224544 | 80 | 216 | 4.0 | 13.0 | 0.00 | 0.00 | 0.00 | 46 | 1008.7 |
| 20260509223049 | 80 | 216 | 4.0 | 11.0 | 0.00 | 0.00 | 0.00 | 46 | 1008.6 |
| 20260509221541 | 80 | 216 | 7.0 | 15.0 | 0.00 | 0.00 | 0.00 | 47 | 1008.5 |
| 20260509220055 | 80 | 216 | 7.0 | 11.0 | 0.00 | 0.00 | 0.00 | 45 | 1008.4 |
| 20260509214542 | 81 | 216 | 7.0 | 12.0 | 0.00 | 0.00 | 0.00 | 44 | 1008.4 |
| 20260509213041 | 80 | 216 | 6.0 | 12.0 | 0.00 | 0.00 | 0.00 | 42 | 1008.6 |
| 20260509211544 | 80 | 216 | 8.0 | 13.0 | 0.00 | 0.00 | 0.00 | 43 | 1008.8 |
| 20260509210042 | 80 | 216 | 8.0 | 15.0 | 0.00 | 0.00 | 0.00 | 44 | 1008.8 |
| 20260509204555 | 80 | 216 | 7.0 | 14.0 | 0.00 | 0.00 | 0.00 | 42 | 1009.1 |